Terminal Aerodrome Forecast
Issued by NWS Medford, OR

Home | Current Version | Previous Version | Text Only | Print | Product List | Glossary On
Versions: 1 2 3 4 5 6 7 8 9 10 11 12 13 14 15 16 17 18 19
000
FTUS46 KMFR 051131
TAFMFR
TAF
KMFR 051131Z 0512/0612 02003KT 2SM FU FEW200
     FM052100 32010G16KT 4SM FU SCT200
     FM060100 32010KT 6SM FU SCT200
     FM061000 02003KT 2SM FU SKC=

USA.gov is the U.S. government's official web portal to all federal, state and local government web resources and services.